Time;durP1;ratioP1;P1;durP2;ratioP2;P2;SDS_P1;SDS_P2;PMS_P1;PMS_P2;Temp;Humidity;BMP_temperature;BMP_pressure;BME280_temperature;BME280_humidity;BME280_pressure;Samples;Min_cycle;Max_cycle;Signal;HPM_P1;HPM_P2
2024/02/20 00:00:50;;;;;;;;;15.00;15.00;;;;;;;;5083981;28;45301;-77
2024/02/20 00:03:15;;;;;;;;;15.00;15.00;;;;;;;;5082398;28;45390;-78
2024/02/20 00:05:41;;;;;;;;;15.33;14.67;;;;;;;;5083679;28;45311;-77
2024/02/20 00:08:06;;;;;;;;;16.00;15.00;;;;;;;;5083614;27;45293;-78
2024/02/20 00:10:31;;;;;;;;;19.33;18.00;;;;;;;;5083670;27;45282;-77
2024/02/20 00:12:59;;;;;;;;;18.33;17.67;;;;;;;;5084390;27;45776;-77
2024/02/20 00:15:25;;;;;;;;;16.67;16.33;;;;;;;;5082754;28;46611;-77
2024/02/20 00:17:50;;;;;;;;;17.67;16.67;;;;;;;;5082618;28;47248;-77
2024/02/20 00:20:15;;;;;;;;;17.00;17.00;;;;;;;;5083773;27;45287;-77
2024/02/20 00:22:40;;;;;;;;;17.33;15.67;;;;;;;;5084654;27;45416;-77
2024/02/20 00:25:06;;;;;;;;;19.00;18.00;;;;;;;;5083193;28;47282;-77
2024/02/20 00:27:31;;;;;;;;;20.00;19.00;;;;;;;;5083811;28;46168;-77
2024/02/20 00:29:57;;;;;;;;;19.67;18.00;;;;;;;;5084979;28;45245;-77
2024/02/20 00:32:22;;;;;;;;;18.67;18.67;;;;;;;;5084438;27;45295;-77
2024/02/20 00:34:47;;;;;;;;;21.67;19.67;;;;;;;;5082716;27;45308;-77
2024/02/20 00:37:13;;;;;;;;;19.00;18.33;;;;;;;;5082992;27;45496;-77
2024/02/20 00:39:38;;;;;;;;;18.33;16.33;;;;;;;;5083757;27;45365;-78
2024/02/20 00:42:03;;;;;;;;;17.67;17.33;;;;;;;;5083531;27;45288;-77
2024/02/20 00:44:29;;;;;;;;;20.33;20.33;;;;;;;;5083597;27;45322;-77
2024/02/20 00:46:54;;;;;;;;;18.00;16.33;;;;;;;;5082776;27;46298;-77
2024/02/20 00:49:19;;;;;;;;;19.33;17.00;;;;;;;;5081238;28;45400;-77
2024/02/20 00:51:44;;;;;;;;;18.33;17.33;;;;;;;;5081767;28;45382;-77
2024/02/20 00:54:09;;;;;;;;;17.33;15.67;;;;;;;;5082393;27;45302;-77
2024/02/20 00:56:35;;;;;;;;;18.33;18.33;;;;;;;;5081764;27;45460;-77
2024/02/20 00:59:02;;;;;;;;;15.67;14.00;;;;;;;;5062981;28;45264;-77
2024/02/20 01:01:27;;;;;;;;;15.00;14.33;;;;;;;;5061273;28;45260;-78
2024/02/20 01:03:52;;;;;;;;;16.33;16.00;;;;;;;;5062564;28;45380;-77
2024/02/20 01:06:18;;;;;;;;;18.00;17.33;;;;;;;;5062918;28;45324;-77
2024/02/20 01:08:43;;;;;;;;;21.00;18.67;;;;;;;;5061360;28;45621;-77
2024/02/20 01:11:08;;;;;;;;;18.67;16.00;;;;;;;;5062503;28;45352;-77
2024/02/20 01:13:33;;;;;;;;;18.33;16.67;;;;;;;;5061547;28;46066;-78
2024/02/20 01:15:59;;;;;;;;;15.67;15.00;;;;;;;;5063497;28;45363;-77
2024/02/20 01:18:25;;;;;;;;;17.00;15.00;;;;;;;;5062849;28;45435;-77
2024/02/20 01:20:50;;;;;;;;;15.33;15.33;;;;;;;;5061511;28;45489;-77
2024/02/20 01:23:15;;;;;;;;;17.33;16.67;;;;;;;;5061067;28;45790;-77
2024/02/20 01:25:43;;;;;;;;;10.67;10.67;;;;;;;;5062757;28;46531;-78
2024/02/20 01:28:09;;;;;;;;;16.67;15.33;;;;;;;;5062941;28;45376;-77
2024/02/20 01:30:34;;;;;;;;;15.67;15.67;;;;;;;;5063515;28;45374;-77
2024/02/20 01:33:00;;;;;;;;;17.00;16.00;;;;;;;;5062458;28;45444;-77
2024/02/20 01:35:26;;;;;;;;;12.67;12.33;;;;;;;;5062360;28;45889;-77
2024/02/20 01:37:52;;;;;;;;;15.67;14.00;;;;;;;;5063144;28;45353;-77
2024/02/20 01:40:18;;;;;;;;;12.33;12.00;;;;;;;;5061880;28;45299;-77
2024/02/20 01:42:54;;;;;;;;;13.67;13.00;;;;;;;;5062132;28;45214;-77
2024/02/20 01:45:19;;;;;;;;;16.33;14.67;;;;;;;;5061878;28;48282;-77
2024/02/20 01:47:44;;;;;;;;;18.33;17.00;;;;;;;;5062989;28;45210;-77
2024/02/20 01:50:10;;;;;;;;;12.33;12.00;;;;;;;;5061143;28;45244;-78
2024/02/20 01:52:35;;;;;;;;;16.33;14.00;;;;;;;;5060666;28;47246;-77
2024/02/20 01:55:01;;;;;;;;;18.33;17.00;;;;;;;;5061025;28;46925;-77
2024/02/20 01:57:27;;;;;;;;;14.33;14.00;;;;;;;;5071905;28;45305;-77
2024/02/20 01:59:54;;;;;;;;;17.67;15.00;;;;;;;;5081369;28;45345;-78
2024/02/20 02:02:20;;;;;;;;;19.00;18.00;;;;;;;;5083393;27;45380;-77
2024/02/20 02:04:45;;;;;;;;;15.67;15.00;;;;;;;;5082374;27;45354;-77
2024/02/20 02:07:10;;;;;;;;;15.67;15.00;;;;;;;;5083149;27;45304;-77
2024/02/20 02:09:35;;;;;;;;;15.67;15.00;;;;;;;;5084065;27;45298;-78
2024/02/20 02:12:00;;;;;;;;;19.00;15.67;;;;;;;;5080774;28;47307;-78
2024/02/20 02:14:26;;;;;;;;;15.67;15.67;;;;;;;;5083680;27;45472;-77
2024/02/20 02:16:51;;;;;;;;;16.00;14.33;;;;;;;;5082553;27;45346;-77
2024/02/20 02:19:16;;;;;;;;;18.00;15.33;;;;;;;;5079972;28;45361;-77
2024/02/20 02:21:41;;;;;;;;;17.00;15.00;;;;;;;;5081832;27;45336;-78
2024/02/20 02:24:07;;;;;;;;;18.00;17.33;;;;;;;;5083083;28;46406;-77
2024/02/20 02:26:33;;;;;;;;;17.67;17.67;;;;;;;;5080927;28;45849;-78
2024/02/20 02:28:58;;;;;;;;;18.00;17.67;;;;;;;;5082784;27;45326;-77
2024/02/20 02:31:23;;;;;;;;;20.33;18.67;;;;;;;;5081100;28;46124;-77
2024/02/20 02:33:48;;;;;;;;;18.00;18.00;;;;;;;;5082027;27;46288;-78
2024/02/20 02:36:14;;;;;;;;;19.33;15.33;;;;;;;;5080480;28;45239;-77
2024/02/20 02:38:39;;;;;;;;;17.33;15.67;;;;;;;;5082659;27;45243;-77
2024/02/20 02:41:05;;;;;;;;;25.67;23.00;;;;;;;;5082119;27;45516;-77
2024/02/20 02:43:30;;;;;;;;;17.67;16.33;;;;;;;;5082556;28;45224;-77
2024/02/20 02:45:55;;;;;;;;;20.33;18.00;;;;;;;;5082808;27;45303;-77
2024/02/20 02:48:20;;;;;;;;;19.33;18.33;;;;;;;;5081507;27;45317;-77
2024/02/20 02:50:45;;;;;;;;;21.33;20.33;;;;;;;;5081923;27;45249;-78
2024/02/20 02:53:11;;;;;;;;;20.33;17.33;;;;;;;;5079926;28;48259;-77
2024/02/20 02:55:36;;;;;;;;;23.33;21.00;;;;;;;;5081366;27;45238;-77
2024/02/20 02:58:02;;;;;;;;;14.67;13.00;;;;;;;;5068640;28;45228;-77
2024/02/20 03:00:27;;;;;;;;;25.00;22.00;;;;;;;;5059766;28;47387;-77
2024/02/20 03:02:52;;;;;;;;;20.67;18.67;;;;;;;;5061704;28;45291;-77
2024/02/20 03:05:18;;;;;;;;;17.00;16.00;;;;;;;;5061349;28;45208;-77
2024/02/20 03:07:44;;;;;;;;;16.33;14.00;;;;;;;;5061732;28;45328;-77
2024/02/20 03:10:11;;;;;;;;;17.00;17.00;;;;;;;;5059875;28;46107;-77
2024/02/20 03:12:36;;;;;;;;;20.33;18.67;;;;;;;;5060611;28;45338;-77
2024/02/20 03:15:01;;;;;;;;;27.00;23.67;;;;;;;;5059058;28;45384;-77
2024/02/20 03:17:26;;;;;;;;;22.00;21.00;;;;;;;;5061206;28;45129;-78
2024/02/20 03:19:52;;;;;;;;;26.67;24.67;;;;;;;;5059107;28;45836;-77
2024/02/20 03:22:18;;;;;;;;;22.00;19.67;;;;;;;;5059177;28;47095;-77
2024/02/20 03:24:45;;;;;;;;;29.33;25.00;;;;;;;;5059888;28;45387;-78
2024/02/20 03:27:10;;;;;;;;;28.00;25.67;;;;;;;;5061699;28;45539;-77
2024/02/20 03:29:36;;;;;;;;;22.67;21.33;;;;;;;;5060666;28;45147;-77
2024/02/20 03:32:01;;;;;;;;;27.33;24.00;;;;;;;;5061108;28;46186;-77
2024/02/20 03:34:26;;;;;;;;;22.33;21.00;;;;;;;;5058586;28;45336;-77
2024/02/20 03:36:51;;;;;;;;;24.00;23.67;;;;;;;;5061259;28;45294;-77
2024/02/20 03:39:16;;;;;;;;;31.33;28.00;;;;;;;;5061023;28;45379;-77
2024/02/20 03:41:41;;;;;;;;;30.00;25.00;;;;;;;;5060014;28;48326;-77
2024/02/20 03:44:06;;;;;;;;;27.67;26.00;;;;;;;;5059505;28;45379;-77
2024/02/20 03:46:32;;;;;;;;;26.00;22.33;;;;;;;;5061690;28;45352;-77
2024/02/20 03:48:57;;;;;;;;;25.00;23.00;;;;;;;;5059916;28;45268;-77
2024/02/20 03:51:22;;;;;;;;;26.67;24.33;;;;;;;;5058824;28;47277;-77
2024/02/20 03:53:47;;;;;;;;;30.67;30.00;;;;;;;;5059809;28;45212;-78
2024/02/20 03:56:13;;;;;;;;;33.67;30.33;;;;;;;;5061132;28;45541;-77
2024/02/20 03:58:38;;;;;;;;;32.33;28.33;;;;;;;;5079008;28;45335;-77
2024/02/20 04:01:05;;;;;;;;;25.67;24.67;;;;;;;;5079434;28;47123;-77
2024/02/20 04:03:31;;;;;;;;;34.67;29.33;;;;;;;;5080610;28;45337;-78
2024/02/20 04:05:56;;;;;;;;;34.33;29.67;;;;;;;;5079577;28;45385;-78
2024/02/20 04:08:21;;;;;;;;;30.67;27.00;;;;;;;;5081602;27;45338;-77
2024/02/20 04:10:46;;;;;;;;;22.67;22.67;;;;;;;;5080853;27;46159;-77
2024/02/20 04:13:11;;;;;;;;;37.00;32.67;;;;;;;;5082096;27;45308;-77
2024/02/20 04:15:37;;;;;;;;;32.00;29.33;;;;;;;;5079753;28;45595;-77
2024/02/20 04:18:02;;;;;;;;;38.67;33.67;;;;;;;;5080810;27;45461;-77
2024/02/20 04:20:27;;;;;;;;;30.67;28.67;;;;;;;;5080814;27;45336;-77
2024/02/20 04:22:53;;;;;;;;;37.33;29.67;;;;;;;;5081757;27;45327;-77
2024/02/20 04:25:18;;;;;;;;;37.67;31.33;;;;;;;;5081109;27;45282;-78
2024/02/20 04:27:44;;;;;;;;;36.00;32.00;;;;;;;;5080721;28;45547;-77
2024/02/20 04:30:10;;;;;;;;;42.00;32.67;;;;;;;;5081132;27;45315;-78
2024/02/20 04:32:35;;;;;;;;;34.00;30.67;;;;;;;;5080599;28;45914;-77
2024/02/20 04:35:00;;;;;;;;;29.00;26.67;;;;;;;;5082505;27;45295;-78
2024/02/20 04:37:25;;;;;;;;;32.67;28.00;;;;;;;;5082010;28;46154;-78
2024/02/20 04:39:51;;;;;;;;;27.67;24.33;;;;;;;;5084104;27;46262;-78
2024/02/20 04:42:16;;;;;;;;;30.00;28.00;;;;;;;;5084331;28;45397;-78
2024/02/20 04:44:41;;;;;;;;;28.67;25.00;;;;;;;;5082485;28;45334;-77
2024/02/20 04:47:07;;;;;;;;;28.00;24.67;;;;;;;;5083626;28;45325;-78
2024/02/20 04:49:32;;;;;;;;;27.67;26.67;;;;;;;;5081581;28;47754;-77
2024/02/20 04:51:58;;;;;;;;;27.67;26.33;;;;;;;;5081820;28;45840;-78
2024/02/20 04:54:23;;;;;;;;;29.00;28.67;;;;;;;;5083788;27;45468;-77
2024/02/20 04:56:48;;;;;;;;;28.00;24.00;;;;;;;;5080623;27;45635;-77
2024/02/20 04:59:14;;;;;;;;;28.33;26.00;;;;;;;;5061375;28;47017;-77
2024/02/20 05:01:39;;;;;;;;;29.00;27.67;;;;;;;;5061796;28;45406;-77
2024/02/20 05:04:05;;;;;;;;;31.33;26.00;;;;;;;;5062942;28;45580;-77
2024/02/20 05:06:30;;;;;;;;;18.67;18.33;;;;;;;;5062418;28;45367;-77
2024/02/20 05:08:55;;;;;;;;;32.00;28.33;;;;;;;;5061583;28;47328;-77
2024/02/20 05:11:20;;;;;;;;;30.67;28.00;;;;;;;;5061658;28;45406;-78
2024/02/20 05:13:45;;;;;;;;;30.00;24.33;;;;;;;;5062955;28;45453;-77
2024/02/20 05:16:11;;;;;;;;;32.67;28.67;;;;;;;;5063096;28;45322;-77
2024/02/20 05:18:36;;;;;;;;;30.67;26.00;;;;;;;;5061338;28;48443;-77
2024/02/20 05:21:01;;;;;;;;;29.67;26.00;;;;;;;;5061183;28;45314;-77
2024/02/20 05:23:27;;;;;;;;;30.67;28.67;;;;;;;;5062570;28;45343;-77
2024/02/20 05:25:52;;;;;;;;;25.33;22.00;;;;;;;;5062586;28;45407;-77
2024/02/20 05:28:18;;;;;;;;;29.33;26.67;;;;;;;;5062153;28;45401;-77
2024/02/20 05:30:43;;;;;;;;;28.33;26.00;;;;;;;;5060778;28;45224;-77
2024/02/20 05:33:10;;;;;;;;;25.67;23.00;;;;;;;;5062101;28;45198;-77
2024/02/20 05:35:35;;;;;;;;;27.67;27.00;;;;;;;;5061961;28;45452;-77
2024/02/20 05:38:00;;;;;;;;;28.67;25.00;;;;;;;;5061853;28;45223;-77
2024/02/20 05:40:25;;;;;;;;;31.00;29.33;;;;;;;;5062287;28;45149;-78
2024/02/20 05:42:51;;;;;;;;;26.33;24.00;;;;;;;;5060263;28;45563;-77
2024/02/20 05:45:19;;;;;;;;;27.67;25.33;;;;;;;;5065695;28;46430;-77
2024/02/20 05:47:44;;;;;;;;;29.67;26.33;;;;;;;;5066586;28;45408;-77
2024/02/20 05:50:10;;;;;;;;;30.67;26.33;;;;;;;;5063927;28;45799;-77
2024/02/20 05:52:36;;;;;;;;;28.33;23.00;;;;;;;;5066493;28;45361;-77
2024/02/20 05:55:01;;;;;;;;;34.67;29.33;;;;;;;;5065077;28;46210;-77
2024/02/20 05:57:26;;;;;;;;;30.67;28.33;;;;;;;;5075986;28;46508;-78
2024/02/20 05:59:51;;;;;;;;;29.67;26.67;;;;;;;;5066139;27;45374;-78
2024/02/20 06:02:17;;;;;;;;;26.00;23.33;;;;;;;;5066342;28;45392;-78
2024/02/20 06:04:42;;;;;;;;;32.00;27.33;;;;;;;;5065613;28;45482;-77
2024/02/20 06:07:07;;;;;;;;;32.00;26.33;;;;;;;;5065284;28;45339;-77
2024/02/20 06:09:32;;;;;;;;;31.67;27.33;;;;;;;;5064702;28;45318;-77
2024/02/20 06:11:59;;;;;;;;;28.00;23.33;;;;;;;;5066878;28;45228;-77
2024/02/20 06:14:24;;;;;;;;;26.33;23.67;;;;;;;;5066860;28;45390;-77
2024/02/20 06:16:49;;;;;;;;;31.00;29.00;;;;;;;;5064766;28;45361;-77
2024/02/20 06:19:14;;;;;;;;;24.67;24.67;;;;;;;;5064311;28;45220;-77
2024/02/20 06:21:40;;;;;;;;;32.33;27.33;;;;;;;;5062382;28;45231;-77
2024/02/20 06:24:05;;;;;;;;;30.00;26.67;;;;;;;;5063025;28;47060;-77
2024/02/20 06:26:31;;;;;;;;;38.00;33.33;;;;;;;;5063273;28;46246;-77
2024/02/20 06:28:56;;;;;;;;;43.67;36.33;;;;;;;;5062902;28;45330;-77
2024/02/20 06:31:22;;;;;;;;;45.25;36.25;;;;;;;;5063577;28;45255;-77
2024/02/20 06:33:47;;;;;;;;;45.00;38.50;;;;;;;;5062375;28;45433;-77
2024/02/20 06:36:13;;;;;;;;;51.50;42.75;;;;;;;;5064676;28;45235;-77
2024/02/20 06:38:38;;;;;;;;;52.75;41.25;;;;;;;;5062011;28;45569;-78
2024/02/20 06:41:04;;;;;;;;;54.50;43.00;;;;;;;;5063931;28;45276;-76
2024/02/20 06:43:29;;;;;;;;;43.50;37.75;;;;;;;;5064362;28;45406;-77
2024/02/20 06:45:55;;;;;;;;;43.00;37.33;;;;;;;;5063791;28;45380;-77
2024/02/20 06:48:20;;;;;;;;;39.00;35.00;;;;;;;;5062452;28;45835;-77
2024/02/20 06:50:45;;;;;;;;;38.33;34.33;;;;;;;;5062797;28;45450;-77
2024/02/20 06:53:10;;;;;;;;;42.00;35.33;;;;;;;;5063951;28;45564;-77
2024/02/20 06:55:36;;;;;;;;;40.67;35.67;;;;;;;;5064132;28;46103;-77
2024/02/20 06:58:01;;;;;;;;;35.00;32.33;;;;;;;;5077976;28;45276;-77
2024/02/20 07:00:26;;;;;;;;;41.33;33.67;;;;;;;;5084660;28;45605;-77
2024/02/20 07:02:51;;;;;;;;;37.67;35.00;;;;;;;;5084002;27;45389;-77
2024/02/20 07:05:16;;;;;;;;;40.33;35.33;;;;;;;;5066233;27;45457;-77
2024/02/20 07:07:42;;;;;;;;;39.67;34.00;;;;;;;;5059954;28;45410;-76
2024/02/20 07:10:08;;;;;;;;;32.33;31.33;;;;;;;;5060082;28;45544;-76
2024/02/20 07:12:33;;;;;;;;;35.67;33.67;;;;;;;;5059887;28;45313;-76
2024/02/20 07:15:00;;;;;;;;;41.67;33.67;;;;;;;;5061710;28;45326;-77
2024/02/20 07:17:26;;;;;;;;;34.00;31.00;;;;;;;;5062078;28;45706;-78
2024/02/20 07:19:52;;;;;;;;;33.00;28.67;;;;;;;;5063240;28;45285;-76
2024/02/20 07:22:17;;;;;;;;;40.33;32.33;;;;;;;;5061196;28;46969;-78
2024/02/20 07:24:42;;;;;;;;;39.67;32.00;;;;;;;;5061634;28;45409;-79
2024/02/20 07:27:07;;;;;;;;;42.00;35.00;;;;;;;;5062467;28;45244;-78
2024/02/20 07:29:32;;;;;;;;;33.33;32.33;;;;;;;;5060328;28;45361;-78
2024/02/20 07:31:57;;;;;;;;;37.67;34.00;;;;;;;;5060731;28;45224;-78
2024/02/20 07:34:24;;;;;;;;;32.33;31.00;;;;;;;;5060973;28;46029;-80
2024/02/20 07:36:49;;;;;;;;;33.33;32.00;;;;;;;;5060060;28;45294;-76
2024/02/20 07:39:14;;;;;;;;;44.00;35.33;;;;;;;;5059412;28;45275;-78
2024/02/20 07:41:40;;;;;;;;;41.67;34.33;;;;;;;;5059674;28;45583;-78
2024/02/20 07:44:05;;;;;;;;;35.67;32.33;;;;;;;;5059947;28;45408;-78
2024/02/20 07:46:31;;;;;;;;;34.33;29.67;;;;;;;;5061129;28;45361;-78
2024/02/20 07:48:56;;;;;;;;;38.33;33.33;;;;;;;;5059582;28;45305;-78
2024/02/20 07:51:23;;;;;;;;;38.67;34.00;;;;;;;;5057880;28;45759;-78
2024/02/20 07:53:50;;;;;;;;;31.00;27.67;;;;;;;;5060074;28;45403;-78
2024/02/20 07:56:21;;;;;;;;;40.33;32.33;;;;;;;;5060324;28;45322;-80
2024/02/20 07:58:47;;;;;;;;;42.67;34.67;;;;;;;;5065930;28;45242;-79
2024/02/20 08:01:12;;;;;;;;;44.00;35.00;;;;;;;;5061177;28;46033;-80
2024/02/20 08:03:37;;;;;;;;;43.33;37.33;;;;;;;;5060297;28;48204;-79
2024/02/20 08:06:05;;;;;;;;;41.33;33.33;;;;;;;;5060854;28;45410;-79
2024/02/20 08:08:30;;;;;;;;;39.00;33.67;;;;;;;;5061496;28;45405;-80
2024/02/20 08:10:55;;;;;;;;;46.50;36.50;;;;;;;;5070860;28;45428;-79
2024/02/20 08:13:22;;;;;;;;;39.00;33.67;;;;;;;;5070137;28;45195;-79
2024/02/20 08:15:47;;;;;;;;;40.00;35.00;;;;;;;;5066949;28;45251;-78
2024/02/20 08:18:13;;;;;;;;;37.00;32.33;;;;;;;;5072547;28;45298;-80
2024/02/20 08:20:38;;;;;;;;;34.67;31.00;;;;;;;;5070766;28;45298;-79
2024/02/20 08:23:03;;;;;;;;;38.67;35.00;;;;;;;;5067193;28;46155;-79
2024/02/20 08:25:29;;;;;;;;;38.67;34.33;;;;;;;;5069484;28;45410;-78
2024/02/20 08:27:54;;;;;;;;;43.33;35.67;;;;;;;;5071259;28;45274;-79
2024/02/20 08:30:22;;;;;;;;;36.67;33.67;;;;;;;;5071040;28;45274;-78
2024/02/20 08:32:47;;;;;;;;;35.33;31.33;;;;;;;;5077863;28;45325;-79
2024/02/20 08:35:12;;;;;;;;;47.67;35.33;;;;;;;;5075191;28;45468;-78
2024/02/20 08:37:38;;;;;;;;;37.67;33.00;;;;;;;;5073950;28;45215;-78
2024/02/20 08:40:04;;;;;;;;;45.67;37.00;;;;;;;;5071385;28;45217;-79
2024/02/20 08:42:29;;;;;;;;;38.67;33.33;;;;;;;;5075724;28;46718;-79
2024/02/20 08:44:54;;;;;;;;;43.33;35.33;;;;;;;;5070846;28;45871;-76
2024/02/20 08:47:21;;;;;;;;;39.00;33.00;;;;;;;;5083462;28;45129;-75
2024/02/20 08:49:48;;;;;;;;;40.33;34.00;;;;;;;;5074903;28;46368;-75
2024/02/20 08:52:14;;;;;;;;;41.33;32.67;;;;;;;;5078450;28;45529;-75
2024/02/20 08:54:39;;;;;;;;;33.33;30.67;;;;;;;;5081876;28;44720;-75
2024/02/20 08:57:04;;;;;;;;;34.33;29.67;;;;;;;;5093192;27;44636;-77
2024/02/20 08:59:30;;;;;;;;;37.33;33.33;;;;;;;;5106289;27;44744;-76
2024/02/20 09:01:55;;;;;;;;;30.67;28.00;;;;;;;;5106548;27;45031;-76
2024/02/20 09:04:22;;;;;;;;;29.67;28.33;;;;;;;;5095334;27;45494;-76
2024/02/20 09:06:47;;;;;;;;;38.67;33.33;;;;;;;;5091727;27;45375;-76
2024/02/20 09:09:12;;;;;;;;;36.00;33.00;;;;;;;;5090474;27;45289;-76
2024/02/20 09:11:38;;;;;;;;;38.33;30.67;;;;;;;;5068684;27;45421;-76
2024/02/20 09:14:03;;;;;;;;;40.33;33.00;;;;;;;;5070720;28;45354;-77
2024/02/20 09:16:28;;;;;;;;;45.67;36.67;;;;;;;;5068491;28;44743;-76
2024/02/20 09:18:53;;;;;;;;;39.67;33.00;;;;;;;;5056857;28;45371;-76
2024/02/20 09:21:19;;;;;;;;;42.67;34.00;;;;;;;;5050032;28;48356;-77
2024/02/20 09:23:44;;;;;;;;;46.00;36.67;;;;;;;;5061141;28;45287;-76
2024/02/20 09:26:09;;;;;;;;;48.67;37.33;;;;;;;;5060907;28;45220;-76
2024/02/20 09:28:35;;;;;;;;;32.00;28.33;;;;;;;;5060709;28;45286;-75
2024/02/20 09:31:00;;;;;;;;;48.67;39.67;;;;;;;;5060596;28;45332;-76
2024/02/20 09:33:25;;;;;;;;;41.33;36.33;;;;;;;;5060344;28;45343;-76
2024/02/20 09:35:50;;;;;;;;;39.33;33.00;;;;;;;;5060872;28;45342;-76
2024/02/20 09:38:16;;;;;;;;;39.00;34.00;;;;;;;;5061395;28;45512;-76
2024/02/20 09:40:41;;;;;;;;;42.33;36.33;;;;;;;;5060121;28;48061;-76
2024/02/20 09:43:08;;;;;;;;;44.67;36.00;;;;;;;;5061643;28;45336;-76
2024/02/20 09:45:38;;;;;;;;;36.67;30.33;;;;;;;;5061645;28;45330;-76
2024/02/20 09:48:06;;;;;;;;;35.33;30.67;;;;;;;;5059679;28;46414;-77
2024/02/20 09:50:32;;;;;;;;;35.33;31.67;;;;;;;;5060955;28;45465;-77
2024/02/20 09:52:58;;;;;;;;;40.00;33.67;;;;;;;;5064558;28;45332;-77
2024/02/20 09:55:26;;;;;;;;;31.67;27.33;;;;;;;;5063224;28;45358;-76
2024/02/20 09:57:51;;;;;;;;;35.33;32.00;;;;;;;;5064068;28;46829;-77
2024/02/20 10:00:20;;;;;;;;;32.33;29.67;;;;;;;;5060877;28;45395;-75
2024/02/20 10:02:46;;;;;;;;;35.33;28.67;;;;;;;;5060291;28;45333;-75
2024/02/20 10:05:15;;;;;;;;;33.33;28.33;;;;;;;;5065424;28;45290;-77
2024/02/20 10:07:41;;;;;;;;;34.00;29.67;;;;;;;;5059152;28;46301;-77
2024/02/20 10:10:10;;;;;;;;;36.33;31.67;;;;;;;;5058549;28;47307;-77
2024/02/20 10:12:36;;;;;;;;;29.67;29.67;;;;;;;;5062457;28;46465;-78
2024/02/20 10:15:08;;;;;;;;;40.67;33.00;;;;;;;;5071985;28;45177;-77
2024/02/20 10:17:34;;;;;;;;;35.33;31.00;;;;;;;;5076358;28;44613;-78
2024/02/20 10:20:12;;;;;;;;;34.67;28.67;;;;;;;;5072481;28;48285;-77
2024/02/20 10:22:40;;;;;;;;;32.67;30.00;;;;;;;;5076733;28;45263;-78
2024/02/20 10:25:11;;;;;;;;;34.33;32.00;;;;;;;;5074813;28;45398;-78
2024/02/20 10:27:37;;;;;;;;;37.67;32.00;;;;;;;;5077123;28;46112;-78
2024/02/20 10:30:06;;;;;;;;;35.33;32.67;;;;;;;;5067856;28;47266;-77
2024/02/20 10:32:36;;;;;;;;;42.67;34.67;;;;;;;;5065369;28;45362;-77
2024/02/20 10:35:02;;;;;;;;;37.67;31.33;;;;;;;;5063155;28;45278;-78
2024/02/20 10:37:27;;;;;;;;;38.67;33.33;;;;;;;;5069307;28;45371;-77
2024/02/20 10:40:22;;;;;;;;;44.33;36.00;;;;;;;;5063340;28;46372;-77
2024/02/20 10:42:47;;;;;;;;;35.33;31.33;;;;;;;;5052526;28;45256;-77
2024/02/20 10:45:12;;;;;;;;;38.33;32.33;;;;;;;;5059573;28;45223;-78
2024/02/20 10:47:44;;;;;;;;;33.67;31.00;;;;;;;;5060997;28;45378;-77
2024/02/20 10:50:11;;;;;;;;;31.00;29.00;;;;;;;;5061466;28;45408;-78
2024/02/20 10:52:36;;;;;;;;;36.00;31.00;;;;;;;;5060243;28;45253;-77
2024/02/20 10:55:06;;;;;;;;;36.33;30.33;;;;;;;;5059691;28;45231;-77
2024/02/20 10:57:33;;;;;;;;;35.67;30.00;;;;;;;;5070697;28;47449;-77
2024/02/20 10:59:59;;;;;;;;;29.67;24.33;;;;;;;;5079227;28;47395;-77
2024/02/20 11:02:26;;;;;;;;;39.33;33.33;;;;;;;;5081493;27;45392;-78
2024/02/20 11:04:52;;;;;;;;;30.33;30.33;;;;;;;;5082564;27;45244;-77
2024/02/20 11:07:18;;;;;;;;;33.00;31.00;;;;;;;;5063091;28;45958;-78
2024/02/20 11:10:03;;;;;;;;;35.00;32.00;;;;;;;;5062281;28;45697;-77
2024/02/20 11:12:31;;;;;;;;;26.33;25.00;;;;;;;;5040246;28;45161;-76
2024/02/20 11:15:19;;;;;;;;;33.67;28.67;;;;;;;;5038606;28;45450;-77
2024/02/20 11:17:45;;;;;;;;;31.00;25.00;;;;;;;;5038613;28;46171;-77
2024/02/20 11:20:15;;;;;;;;;31.67;27.00;;;;;;;;5039384;28;45227;-77
2024/02/20 11:22:40;;;;;;;;;31.00;30.00;;;;;;;;5039685;28;45480;-76
2024/02/20 11:25:32;;;;;;;;;35.33;31.00;;;;;;;;5039735;28;45261;-76
2024/02/20 11:27:57;;;;;;;;;29.00;27.00;;;;;;;;5041391;28;45322;-77
2024/02/20 11:30:24;;;;;;;;;34.00;31.00;;;;;;;;5047141;28;46712;-76
2024/02/20 11:32:50;;;;;;;;;31.00;27.00;;;;;;;;5039953;28;45897;-77
2024/02/20 11:35:36;;;;;;;;;29.33;28.00;;;;;;;;5060939;28;45267;-76
2024/02/20 11:38:01;;;;;;;;;27.33;26.00;;;;;;;;5066169;28;45366;-76
2024/02/20 11:40:27;;;;;;;;;28.67;27.33;;;;;;;;5062322;28;45478;-77
2024/02/20 11:42:56;;;;;;;;;25.00;21.67;;;;;;;;5059321;28;45407;-79
2024/02/20 11:45:23;;;;;;;;;33.33;26.67;;;;;;;;5062902;28;45236;-77
2024/02/20 11:48:10;;;;;;;;;36.33;30.33;;;;;;;;5064330;28;45250;-77
2024/02/20 11:50:40;;;;;;;;;25.67;22.67;;;;;;;;5071926;28;45555;-76
2024/02/20 11:53:05;;;;;;;;;20.67;19.00;;;;;;;;5068729;28;45311;-77
2024/02/20 11:55:32;;;;;;;;;24.33;24.00;;;;;;;;5063787;28;45515;-78
2024/02/20 11:57:57;;;;;;;;;22.33;19.67;;;;;;;;5068950;28;46863;-78
2024/02/20 12:00:22;;;;;;;;;21.67;18.67;;;;;;;;5044837;28;45482;-77
2024/02/20 12:02:49;;;;;;;;;28.00;25.67;;;;;;;;5042517;28;45255;-78
2024/02/20 12:05:27;;;;;;;;;26.67;24.67;;;;;;;;5042052;28;45374;-76
2024/02/20 12:07:55;;;;;;;;;19.00;17.67;;;;;;;;5063760;28;45478;-77
2024/02/20 12:10:22;;;;;;;;;28.00;21.00;;;;;;;;5061606;28;48313;-77
2024/02/20 12:12:47;;;;;;;;;24.67;22.67;;;;;;;;5062889;28;45933;-76
2024/02/20 12:15:15;;;;;;;;;26.33;24.33;;;;;;;;5062355;28;45354;-77
2024/02/20 12:17:42;;;;;;;;;22.33;21.33;;;;;;;;5061285;28;47269;-76
2024/02/20 12:20:10;;;;;;;;;24.33;22.00;;;;;;;;5060791;28;47083;-76
2024/02/20 12:22:36;;;;;;;;;23.33;22.67;;;;;;;;5062401;28;45272;-75
2024/02/20 12:25:09;;;;;;;;;26.00;22.33;;;;;;;;5062069;28;45325;-76
2024/02/20 12:27:35;;;;;;;;;14.67;13.67;;;;;;;;5060587;28;46300;-75
2024/02/20 12:30:00;;;;;;;;;22.33;20.33;;;;;;;;5062161;28;45537;-76
2024/02/20 12:32:25;;;;;;;;;22.33;22.33;;;;;;;;5062422;28;45302;-76
2024/02/20 12:34:51;;;;;;;;;26.00;23.33;;;;;;;;5062352;28;45346;-76
2024/02/20 12:37:16;;;;;;;;;27.33;26.67;;;;;;;;5062341;28;45325;-76
2024/02/20 12:39:42;;;;;;;;;22.67;21.33;;;;;;;;5063259;28;46308;-76
2024/02/20 12:42:07;;;;;;;;;23.00;20.50;;;;;;;;5061335;28;45243;-76
2024/02/20 12:44:35;;;;;;;;;21.67;19.67;;;;;;;;5062218;28;45252;-76
2024/02/20 12:47:00;;;;;;;;;21.67;19.67;;;;;;;;5062404;28;45471;-76
2024/02/20 12:49:25;;;;;;;;;24.33;22.33;;;;;;;;5061753;28;45882;-76
2024/02/20 12:51:51;;;;;;;;;22.67;21.00;;;;;;;;5060758;28;45270;-76
2024/02/20 12:54:17;;;;;;;;;21.00;20.00;;;;;;;;5062455;28;45281;-77
2024/02/20 12:56:43;;;;;;;;;22.00;19.33;;;;;;;;5064139;28;45492;-76
2024/02/20 12:59:08;;;;;;;;;13.33;12.33;;;;;;;;5080814;28;46976;-76
2024/02/20 13:01:33;;;;;;;;;21.67;20.33;;;;;;;;5082408;27;45246;-76
2024/02/20 13:03:59;;;;;;;;;10.33;9.33;;;;;;;;5082884;27;45322;-76
2024/02/20 13:06:24;;;;;;;;;22.67;22.67;;;;;;;;5082111;27;45263;-76
2024/02/20 13:08:50;;;;;;;;;18.67;16.33;;;;;;;;5080676;28;47126;-76
2024/02/20 13:11:17;;;;;;;;;17.33;16.00;;;;;;;;5082295;27;45328;-76
2024/02/20 13:13:42;;;;;;;;;19.00;17.00;;;;;;;;5083335;27;45330;-77
2024/02/20 13:16:07;;;;;;;;;19.00;17.67;;;;;;;;5082629;27;45524;-76
2024/02/20 13:18:32;;;;;;;;;20.33;19.33;;;;;;;;5081089;28;48568;-76
2024/02/20 13:21:02;;;;;;;;;19.00;18.33;;;;;;;;5082245;27;45318;-76
2024/02/20 13:23:27;;;;;;;;;19.33;14.00;;;;;;;;5083240;27;45236;-77
2024/02/20 13:25:52;;;;;;;;;25.67;22.33;;;;;;;;5084194;27;45375;-76
2024/02/20 13:28:22;;;;;;;;;17.33;15.33;;;;;;;;5082548;27;46321;-77
2024/02/20 13:30:47;;;;;;;;;19.67;18.00;;;;;;;;5083870;28;45333;-76
2024/02/20 13:33:12;;;;;;;;;22.00;19.67;;;;;;;;5084136;27;45622;-76
2024/02/20 13:35:37;;;;;;;;;16.00;16.00;;;;;;;;5081887;28;46181;-76
2024/02/20 13:38:02;;;;;;;;;15.00;15.00;;;;;;;;5062873;28;45373;-76
2024/02/20 13:40:28;;;;;;;;;19.00;18.00;;;;;;;;5062477;28;45272;-76
2024/02/20 13:42:53;;;;;;;;;18.33;15.00;;;;;;;;5060846;28;45365;-76
2024/02/20 13:45:18;;;;;;;;;16.67;16.00;;;;;;;;5061220;28;45362;-77
2024/02/20 13:47:43;;;;;;;;;16.00;16.00;;;;;;;;5060877;28;46898;-76
2024/02/20 13:50:09;;;;;;;;;14.67;14.67;;;;;;;;5061484;28;45366;-75
2024/02/20 13:52:34;;;;;;;;;13.67;13.67;;;;;;;;5061576;28;45347;-77
2024/02/20 13:54:59;;;;;;;;;13.67;13.00;;;;;;;;5060524;28;46446;-76
2024/02/20 13:57:24;;;;;;;;;14.00;13.33;;;;;;;;5069770;28;46004;-76
2024/02/20 13:59:50;;;;;;;;;14.00;12.67;;;;;;;;5083055;27;45424;-76
2024/02/20 14:02:18;;;;;;;;;15.00;14.67;;;;;;;;5083008;27;45381;-76
2024/02/20 14:04:43;;;;;;;;;14.33;14.00;;;;;;;;5082691;27;45401;-76
2024/02/20 14:07:08;;;;;;;;;17.00;16.67;;;;;;;;5079972;28;47924;-76
2024/02/20 14:09:35;;;;;;;;;18.00;16.33;;;;;;;;5084348;27;45306;-77